Terminal Aerodrome Forecast
Issued by NWS

Home | Current Version | Previous Version | Text Only | Print | Product List | Glossary On
Versions: 1 2 3 4 5 6 7 8 9 10 11 12 13 14 15 16 17 18 19 20 21
000
FTUS44 KBMX 251939 AAA
TAFTCL
TAF AMD
KTCL 251939Z 2520/2618 14005KT P6SM VCTS BKN045CB
      TEMPO 2520/2522 VRB10G25KT 2SM TSRA BKN030CB OVC040
     FM260100 16003KT P6SM BKN050
     FM260800 00000KT 4SM BR BKN035
     FM261400 17004KT P6SM VCSH BKN035=

USA.gov is the U.S. government's official web portal to all federal, state and local government web resources and services.